CheckWX is a tool to help pilots better visualize weather data.  It is not intended as a substitute for an official pre-flight weather briefing.

07:24:31 UTC

KFRH METAR
French Lick Municipal Airport
French Lick, Indiana, USA
Current

30 mins ago

KFRH 260655Z AUTO 21003KT 10SM CLR 22/18 A3006 RMK AO1
Observed
May-26 @ 06:55 UTC
Wind
  • 210° at 3 KTS
Visibility
10 SM
Flight Rules
VFR
Cloud Levels
  • Clear skies
Temperature
22°C / 72°F
Dewpoint
18°C / 64°F
Humidity
78%
Altimeter
30.06" Hg
Pressure
1017.92 hPa
Previous

50 mins ago

KFRH 260635Z AUTO 00000KT 10SM CLR 22/18 A3006 RMK AO1
Observed
May-26 @ 06:35 UTC
Visibility
10 SM
Flight Rules
VFR
Cloud Levels
  • Clear skies
Temperature
22°C / 72°F
Dewpoint
18°C / 64°F
Humidity
78%
Altimeter
30.06" Hg
Pressure
1017.92 hPa
Previous

1 hour ago

KFRH 260615Z AUTO 00000KT 10SM CLR 22/18 A3007 RMK AO1
Observed
May-26 @ 06:15 UTC
Visibility
10 SM
Flight Rules
VFR
Cloud Levels
  • Clear skies
Temperature
22°C / 72°F
Dewpoint
18°C / 64°F
Humidity
78%
Altimeter
30.07" Hg
Pressure
1018.32 hPa